Time;durP1;ratioP1;P1;durP2;ratioP2;P2;SDS_P1;SDS_P2;PMS_P1;PMS_P2;Temp;Humidity;BMP_temperature;BMP_pressure;BME280_temperature;BME280_humidity;BME280_pressure;Samples;Min_cycle;Max_cycle;Signal;HPM_P1;HPM_P2
2023/08/19 00:00:22;;;;;;;3.30;1.98;;;;;;;;;;5010253;28;20045;-80
2023/08/19 00:02:49;;;;;;;2.80;2.38;;;;;;;;;;5010164;28;20463;-80
2023/08/19 00:05:15;;;;;;;3.25;2.75;;;;;;;;;;5007607;28;20026;-80
2023/08/19 00:07:41;;;;;;;3.90;2.30;;;;;;;;;;5008644;28;20041;-80
2023/08/19 00:10:07;;;;;;;2.08;1.67;;;;;;;;;;5010108;28;20038;-80
2023/08/19 00:12:33;;;;;;;3.35;2.50;;;;;;;;;;5008595;28;20768;-80
2023/08/19 00:14:59;;;;;;;3.80;2.30;;;;;;;;;;5008336;28;20046;-80
2023/08/19 00:17:25;;;;;;;3.50;2.65;;;;;;;;;;5007125;28;20498;-80
2023/08/19 00:19:52;;;;;;;3.08;2.10;;;;;;;;;;5007986;28;20488;-80
2023/08/19 00:22:18;;;;;;;3.78;2.50;;;;;;;;;;5008721;28;20048;-80
2023/08/19 00:24:44;;;;;;;2.30;2.10;;;;;;;;;;5004383;28;20042;-80
2023/08/19 00:27:10;;;;;;;2.50;2.05;;;;;;;;;;5008453;28;20030;-80
2023/08/19 00:29:36;;;;;;;3.03;2.35;;;;;;;;;;5003196;28;20045;-80
2023/08/19 00:32:02;;;;;;;2.22;1.67;;;;;;;;;;5008216;28;20034;-80
2023/08/19 00:34:28;;;;;;;3.65;2.50;;;;;;;;;;5010033;28;20036;-80
2023/08/19 00:36:54;;;;;;;2.22;1.73;;;;;;;;;;5009061;28;20026;-80
2023/08/19 00:39:20;;;;;;;3.15;2.47;;;;;;;;;;5004855;28;20021;-80
2023/08/19 00:41:48;;;;;;;2.75;2.17;;;;;;;;;;5008830;28;20021;-80
2023/08/19 00:44:17;;;;;;;3.33;2.17;;;;;;;;;;4995913;28;20036;-80
2023/08/19 00:46:42;;;;;;;3.30;2.25;;;;;;;;;;5007067;28;20045;-80
2023/08/19 00:49:08;;;;;;;3.45;1.98;;;;;;;;;;5006170;28;20022;-81
2023/08/19 00:51:35;;;;;;;3.60;2.50;;;;;;;;;;5008519;28;20160;-80
2023/08/19 00:54:01;;;;;;;4.68;2.78;;;;;;;;;;5008644;28;20050;-80
2023/08/19 00:56:27;;;;;;;2.95;2.10;;;;;;;;;;5006841;28;20032;-80
2023/08/19 00:58:55;;;;;;;4.03;2.97;;;;;;;;;;5004913;28;20490;-80
2023/08/19 01:01:21;;;;;;;3.42;2.28;;;;;;;;;;4993476;28;20030;-80
2023/08/19 01:03:47;;;;;;;2.85;2.28;;;;;;;;;;5008703;28;20604;-80
2023/08/19 01:06:13;;;;;;;2.58;2.08;;;;;;;;;;5007813;28;20044;-80
2023/08/19 01:08:43;;;;;;;2.78;1.90;;;;;;;;;;5007657;28;20033;-80
2023/08/19 01:11:25;;;;;;;4.10;2.10;;;;;;;;;;5005483;28;20057;-80
2023/08/19 01:14:00;;;;;;;3.00;2.15;;;;;;;;;;5009204;28;20567;-80
2023/08/19 01:16:27;;;;;;;2.28;1.95;;;;;;;;;;5008970;28;20025;-80
2023/08/19 01:18:54;;;;;;;2.80;1.95;;;;;;;;;;5006922;28;20052;-80
2023/08/19 01:21:20;;;;;;;2.35;1.70;;;;;;;;;;5007915;28;20042;-80
2023/08/19 01:23:47;;;;;;;2.25;2.03;;;;;;;;;;5009001;28;20100;-80
2023/08/19 01:26:13;;;;;;;2.92;2.13;;;;;;;;;;5005283;28;20148;-80
2023/08/19 01:28:39;;;;;;;3.92;2.10;;;;;;;;;;5007296;28;20082;-80
2023/08/19 01:31:05;;;;;;;2.72;2.03;;;;;;;;;;5003296;28;20030;-80
2023/08/19 01:33:32;;;;;;;3.08;2.33;;;;;;;;;;5005114;28;20510;-80
2023/08/19 01:36:07;;;;;;;5.47;2.53;;;;;;;;;;5000502;28;20240;-80
2023/08/19 01:38:51;;;;;;;2.90;2.13;;;;;;;;;;5002444;28;20029;-80
2023/08/19 01:41:18;;;;;;;3.63;2.35;;;;;;;;;;5009130;28;20469;-80
2023/08/19 01:43:45;;;;;;;3.08;2.10;;;;;;;;;;5005228;28;20026;-80
2023/08/19 01:46:11;;;;;;;5.57;1.80;;;;;;;;;;5008342;28;20435;-81
2023/08/19 01:48:37;;;;;;;2.90;2.10;;;;;;;;;;5001167;28;20394;-80
2023/08/19 01:51:03;;;;;;;2.92;2.30;;;;;;;;;;5008237;28;20022;-80
2023/08/19 01:53:29;;;;;;;3.88;2.50;;;;;;;;;;5005404;28;20429;-80
2023/08/19 01:55:55;;;;;;;5.07;2.30;;;;;;;;;;5006802;28;20482;-80
2023/08/19 01:58:21;;;;;;;3.10;2.38;;;;;;;;;;5007502;28;20037;-80
2023/08/19 02:00:47;;;;;;;2.97;2.28;;;;;;;;;;5008184;28;20647;-80
2023/08/19 02:03:13;;;;;;;2.42;2.22;;;;;;;;;;5005896;28;20462;-80
2023/08/19 02:05:39;;;;;;;2.47;2.17;;;;;;;;;;5006078;28;20038;-80
2023/08/19 02:08:05;;;;;;;3.47;2.70;;;;;;;;;;5007941;28;20037;-80
2023/08/19 02:10:32;;;;;;;2.63;1.95;;;;;;;;;;5007368;28;20149;-80
2023/08/19 02:13:02;;;;;;;3.17;2.17;;;;;;;;;;5004704;28;20084;-80
2023/08/19 02:15:28;;;;;;;2.20;1.70;;;;;;;;;;5003822;28;20033;-80
2023/08/19 02:17:54;;;;;;;2.20;2.00;;;;;;;;;;5003948;28;20128;-80
2023/08/19 02:20:20;;;;;;;3.60;2.20;;;;;;;;;;5007882;28;20397;-81
2023/08/19 02:22:46;;;;;;;2.38;1.85;;;;;;;;;;5006817;28;20022;-80
2023/08/19 02:25:12;;;;;;;3.97;2.40;;;;;;;;;;5004181;28;20483;-80
2023/08/19 02:27:38;;;;;;;3.15;2.40;;;;;;;;;;5006293;28;20671;-80
2023/08/19 02:30:05;;;;;;;3.85;2.33;;;;;;;;;;5006335;28;20022;-81
2023/08/19 02:32:31;;;;;;;3.38;2.30;;;;;;;;;;5004990;28;20740;-81
2023/08/19 02:34:57;;;;;;;2.63;2.10;;;;;;;;;;5006960;28;20026;-81
2023/08/19 02:37:22;;;;;;;3.08;2.33;;;;;;;;;;5005467;28;20030;-80
2023/08/19 02:39:48;;;;;;;2.35;1.90;;;;;;;;;;5007785;28;20065;-81
2023/08/19 02:42:16;;;;;;;2.58;1.77;;;;;;;;;;5002726;28;20037;-80
2023/08/19 02:44:43;;;;;;;2.40;2.10;;;;;;;;;;5005361;28;20025;-81
2023/08/19 02:47:09;;;;;;;3.65;2.53;;;;;;;;;;5003671;28;20148;-81
2023/08/19 02:49:36;;;;;;;2.17;1.88;;;;;;;;;;5008472;28;20054;-81
2023/08/19 02:52:02;;;;;;;2.78;2.00;;;;;;;;;;5006305;28;20025;-81
2023/08/19 02:54:28;;;;;;;2.58;1.85;;;;;;;;;;5004329;28;20033;-81
2023/08/19 02:56:54;;;;;;;3.38;2.20;;;;;;;;;;5005060;28;20049;-81
2023/08/19 02:59:20;;;;;;;3.72;2.15;;;;;;;;;;5007532;28;20076;-81
2023/08/19 03:01:46;;;;;;;4.03;2.22;;;;;;;;;;5007445;28;20030;-81
2023/08/19 03:04:12;;;;;;;2.55;1.90;;;;;;;;;;5005755;28;20048;-81
2023/08/19 03:06:38;;;;;;;2.83;2.10;;;;;;;;;;5004514;28;20022;-81
2023/08/19 03:09:05;;;;;;;2.35;2.00;;;;;;;;;;5002339;28;20026;-81
2023/08/19 03:11:31;;;;;;;2.13;1.90;;;;;;;;;;5007605;28;20041;-81
2023/08/19 03:13:57;;;;;;;2.42;1.70;;;;;;;;;;5004328;28;20038;-80
2023/08/19 03:16:23;;;;;;;2.95;1.88;;;;;;;;;;5006305;28;20026;-81
2023/08/19 03:18:49;;;;;;;3.55;2.20;;;;;;;;;;5007454;28;20053;-81
2023/08/19 03:21:14;;;;;;;3.05;1.95;;;;;;;;;;5008603;28;20018;-81
2023/08/19 03:23:40;;;;;;;2.47;1.80;;;;;;;;;;5008601;28;20490;-81
2023/08/19 03:26:06;;;;;;;1.95;1.70;;;;;;;;;;5003977;28;20083;-81
2023/08/19 03:28:32;;;;;;;2.05;1.75;;;;;;;;;;5004247;28;20433;-80
2023/08/19 03:30:58;;;;;;;1.95;1.75;;;;;;;;;;5008570;28;20086;-81
2023/08/19 03:33:24;;;;;;;2.58;1.95;;;;;;;;;;5008707;28;20033;-82
2023/08/19 03:35:50;;;;;;;2.72;2.10;;;;;;;;;;5007780;28;20061;-81
2023/08/19 03:38:16;;;;;;;2.15;1.73;;;;;;;;;;5010040;28;20030;-81
2023/08/19 03:40:42;;;;;;;3.15;2.25;;;;;;;;;;5008735;28;20363;-81
2023/08/19 03:43:12;;;;;;;2.40;1.85;;;;;;;;;;5010587;28;20041;-77
2023/08/19 03:45:38;;;;;;;3.67;2.28;;;;;;;;;;5011329;28;20045;-77
2023/08/19 03:48:04;;;;;;;2.45;1.95;;;;;;;;;;5009197;28;20063;-81
2023/08/19 03:50:30;;;;;;;4.28;2.22;;;;;;;;;;5008071;28;20060;-84
2023/08/19 03:52:56;;;;;;;3.30;2.15;;;;;;;;;;5008981;28;20025;-83
2023/08/19 03:55:22;;;;;;;2.55;1.88;;;;;;;;;;5011252;28;20037;-82
2023/08/19 03:57:51;;;;;;;2.63;1.92;;;;;;;;;;5007846;28;20024;-82
2023/08/19 04:00:17;;;;;;;3.25;2.13;;;;;;;;;;5007206;28;20034;-86
2023/08/19 04:02:43;;;;;;;3.83;2.53;;;;;;;;;;5010647;28;20786;-82
2023/08/19 04:05:10;;;;;;;3.13;2.22;;;;;;;;;;5025639;28;20532;-82
2023/08/19 04:07:37;;;;;;;2.67;1.85;;;;;;;;;;5009323;28;20037;-82
2023/08/19 04:10:04;;;;;;;2.08;1.88;;;;;;;;;;5007413;28;20109;-82
2023/08/19 04:12:30;;;;;;;1.80;1.50;;;;;;;;;;4997280;28;20118;-82
2023/08/19 04:14:56;;;;;;;2.47;1.88;;;;;;;;;;5008427;28;20041;-86
2023/08/19 04:17:22;;;;;;;3.78;2.20;;;;;;;;;;5006593;28;20032;-80
2023/08/19 04:19:49;;;;;;;2.20;2.00;;;;;;;;;;5008385;28;20014;-81
2023/08/19 04:22:15;;;;;;;5.93;2.28;;;;;;;;;;5004040;28;20029;-78
2023/08/19 04:24:41;;;;;;;2.20;1.90;;;;;;;;;;5007381;28;20084;-79
2023/08/19 04:27:07;;;;;;;2.53;1.70;;;;;;;;;;5006723;28;20140;-79
2023/08/19 04:29:33;;;;;;;3.22;2.30;;;;;;;;;;5009376;28;20483;-79
2023/08/19 04:32:03;;;;;;;3.88;2.05;;;;;;;;;;5008838;28;20478;-79
2023/08/19 04:34:29;;;;;;;2.85;1.90;;;;;;;;;;5001314;28;20508;-79
2023/08/19 04:36:55;;;;;;;2.78;1.77;;;;;;;;;;5010300;28;20029;-79
2023/08/19 04:39:22;;;;;;;4.30;2.72;;;;;;;;;;5009938;28;20049;-79
2023/08/19 04:41:49;;;;;;;2.78;1.95;;;;;;;;;;5008823;28;20069;-79
2023/08/19 04:44:15;;;;;;;3.55;2.00;;;;;;;;;;5008180;28;20930;-79
2023/08/19 04:46:41;;;;;;;2.80;2.25;;;;;;;;;;5010108;28;20033;-79
2023/08/19 04:49:07;;;;;;;5.90;1.88;;;;;;;;;;5009943;28;20121;-79
2023/08/19 04:51:33;;;;;;;2.80;1.95;;;;;;;;;;5009692;28;20481;-79
2023/08/19 04:53:59;;;;;;;4.40;2.65;;;;;;;;;;5002525;28;20045;-79
2023/08/19 04:56:26;;;;;;;2.08;1.63;;;;;;;;;;4990553;28;20034;-79
2023/08/19 04:58:52;;;;;;;2.80;2.03;;;;;;;;;;5009010;28;20436;-80
2023/08/19 05:01:17;;;;;;;2.85;1.85;;;;;;;;;;5007550;28;20398;-79
2023/08/19 05:03:44;;;;;;;2.55;2.08;;;;;;;;;;5002169;28;20026;-79
2023/08/19 05:06:10;;;;;;;3.10;2.17;;;;;;;;;;4990024;28;20027;-80
2023/08/19 05:08:36;;;;;;;2.58;1.95;;;;;;;;;;5007526;28;20030;-79
2023/08/19 05:11:01;;;;;;;1.88;1.67;;;;;;;;;;5006924;28;20037;-79
2023/08/19 05:13:27;;;;;;;2.15;1.85;;;;;;;;;;5000172;28;20026;-80
2023/08/19 05:15:53;;;;;;;2.72;1.90;;;;;;;;;;4994792;28;20054;-80
2023/08/19 05:18:19;;;;;;;2.45;2.05;;;;;;;;;;4989723;28;20061;-79
2023/08/19 05:20:45;;;;;;;2.38;1.90;;;;;;;;;;5003245;28;20145;-79
2023/08/19 05:23:11;;;;;;;3.08;2.15;;;;;;;;;;5009583;28;20034;-79
2023/08/19 05:25:37;;;;;;;3.88;1.90;;;;;;;;;;5006095;28;20033;-79
2023/08/19 05:28:04;;;;;;;2.88;2.08;;;;;;;;;;5007723;28;20431;-79
2023/08/19 05:30:29;;;;;;;2.17;1.83;;;;;;;;;;5008047;28;20036;-79
2023/08/19 05:32:55;;;;;;;3.08;2.35;;;;;;;;;;5007816;28;20030;-79
2023/08/19 05:35:21;;;;;;;2.38;1.90;;;;;;;;;;5002308;28;20490;-79
2023/08/19 05:37:47;;;;;;;3.13;2.17;;;;;;;;;;5008828;28;20569;-79
2023/08/19 05:40:13;;;;;;;2.90;1.77;;;;;;;;;;5008885;28;20145;-79
2023/08/19 05:42:39;;;;;;;2.60;2.03;;;;;;;;;;5008871;28;20088;-79
2023/08/19 05:45:05;;;;;;;2.65;2.05;;;;;;;;;;5000923;28;20029;-79
2023/08/19 05:47:31;;;;;;;2.97;1.98;;;;;;;;;;5003718;28;20040;-79
2023/08/19 05:49:57;;;;;;;3.03;1.80;;;;;;;;;;4995638;28;20030;-80
2023/08/19 05:52:23;;;;;;;2.17;1.77;;;;;;;;;;5002302;28;20133;-79
2023/08/19 05:54:53;;;;;;;2.55;1.88;;;;;;;;;;4988959;28;20034;-79
2023/08/19 05:57:25;;;;;;;3.53;2.25;;;;;;;;;;4996952;28;20530;-79
2023/08/19 05:59:51;;;;;;;3.40;2.35;;;;;;;;;;5008495;28;20073;-79
2023/08/19 06:02:17;;;;;;;2.70;2.10;;;;;;;;;;5005026;28;20470;-80
2023/08/19 06:04:43;;;;;;;2.47;1.88;;;;;;;;;;4994168;28;20026;-79
2023/08/19 06:07:09;;;;;;;3.30;2.50;;;;;;;;;;4996535;28;20030;-79
2023/08/19 06:09:35;;;;;;;2.35;1.85;;;;;;;;;;5008399;28;20029;-79
2023/08/19 06:12:02;;;;;;;2.38;1.88;;;;;;;;;;5005898;28;20559;-79
2023/08/19 06:14:28;;;;;;;4.30;2.28;;;;;;;;;;5003183;28;20038;-79
2023/08/19 06:16:57;;;;;;;4.03;1.95;;;;;;;;;;4990005;28;20027;-79
2023/08/19 06:19:23;;;;;;;3.47;2.03;;;;;;;;;;4987910;28;20022;-79
2023/08/19 06:21:50;;;;;;;2.00;1.77;;;;;;;;;;5007027;28;20242;-80
2023/08/19 06:24:16;;;;;;;2.72;1.73;;;;;;;;;;5005439;28;20068;-79
2023/08/19 06:26:42;;;;;;;2.83;2.03;;;;;;;;;;5006213;28;20022;-79
2023/08/19 06:29:08;;;;;;;2.50;2.10;;;;;;;;;;5004581;28;20034;-79
2023/08/19 06:31:34;;;;;;;2.42;2.00;;;;;;;;;;4994970;28;20026;-79
2023/08/19 06:34:00;;;;;;;3.42;2.20;;;;;;;;;;4988709;28;20033;-80
2023/08/19 06:36:28;;;;;;;3.03;1.80;;;;;;;;;;4988217;28;20450;-79
2023/08/19 06:39:14;;;;;;;3.60;2.33;;;;;;;;;;5004352;28;20079;-79
2023/08/19 06:41:42;;;;;;;2.22;1.67;;;;;;;;;;4990266;28;20421;-79
2023/08/19 06:44:08;;;;;;;2.70;2.10;;;;;;;;;;4989373;28;20065;-79
2023/08/19 06:46:34;;;;;;;2.85;1.80;;;;;;;;;;4988662;28;20034;-79
2023/08/19 06:49:00;;;;;;;3.28;1.60;;;;;;;;;;5001243;28;20030;-79
2023/08/19 06:51:27;;;;;;;2.15;1.67;;;;;;;;;;5004949;28;20033;-79
2023/08/19 06:53:53;;;;;;;2.95;2.00;;;;;;;;;;5005169;28;20050;-79
2023/08/19 06:56:38;;;;;;;2.92;1.90;;;;;;;;;;4992321;28;20113;-79
2023/08/19 06:59:20;;;;;;;2.05;1.73;;;;;;;;;;5000324;28;20046;-80
2023/08/19 07:01:49;;;;;;;3.28;2.33;;;;;;;;;;5008024;28;20025;-79
2023/08/19 07:04:19;;;;;;;3.78;1.88;;;;;;;;;;5008862;28;20041;-79
2023/08/19 07:06:45;;;;;;;2.80;1.92;;;;;;;;;;5005673;28;20030;-79
2023/08/19 07:09:12;;;;;;;2.60;2.20;;;;;;;;;;5009381;28;20501;-80
2023/08/19 07:11:38;;;;;;;3.03;2.20;;;;;;;;;;5009423;28;20037;-80
2023/08/19 07:14:05;;;;;;;2.05;1.70;;;;;;;;;;5011537;28;20025;-79
2023/08/19 07:16:34;;;;;;;3.30;2.33;;;;;;;;;;5010127;28;20026;-79
2023/08/19 07:19:03;;;;;;;2.17;1.63;;;;;;;;;;5011266;28;20065;-79
2023/08/19 07:21:31;;;;;;;5.07;2.28;;;;;;;;;;5005286;28;20055;-79
2023/08/19 07:23:58;;;;;;;2.35;1.90;;;;;;;;;;5009722;28;20034;-79
2023/08/19 07:26:26;;;;;;;2.53;2.08;;;;;;;;;;5011479;28;20069;-80
2023/08/19 07:28:52;;;;;;;3.17;1.92;;;;;;;;;;5011176;28;20026;-79
2023/08/19 07:31:18;;;;;;;3.45;2.40;;;;;;;;;;5009705;28;20084;-79
2023/08/19 07:33:44;;;;;;;3.28;2.30;;;;;;;;;;4997000;28;20041;-80
2023/08/19 07:36:13;;;;;;;2.47;2.08;;;;;;;;;;4992528;28;20156;-80
2023/08/19 07:38:39;;;;;;;3.10;2.00;;;;;;;;;;5007855;28;20058;-80
2023/08/19 07:41:05;;;;;;;2.63;1.88;;;;;;;;;;5001097;28;20110;-80
2023/08/19 07:43:31;;;;;;;2.67;1.92;;;;;;;;;;5000413;28;20449;-79
2023/08/19 07:45:57;;;;;;;3.40;2.15;;;;;;;;;;5004845;28;20025;-79
2023/08/19 07:48:23;;;;;;;2.05;1.63;;;;;;;;;;5010131;28;20029;-79
2023/08/19 07:50:50;;;;;;;3.90;2.30;;;;;;;;;;5010504;28;20060;-79
2023/08/19 07:53:16;;;;;;;2.35;1.70;;;;;;;;;;5009267;28;20114;-80
2023/08/19 07:55:42;;;;;;;2.05;1.70;;;;;;;;;;4991169;28;20488;-80
2023/08/19 07:58:08;;;;;;;2.80;2.25;;;;;;;;;;5005446;28;20030;-79
2023/08/19 08:00:35;;;;;;;1.95;1.75;;;;;;;;;;5010597;28;20049;-80
2023/08/19 08:03:01;;;;;;;2.80;2.08;;;;;;;;;;4997617;28;20453;-80
2023/08/19 08:05:27;;;;;;;4.20;2.10;;;;;;;;;;5003269;28;20029;-80
2023/08/19 08:07:53;;;;;;;2.30;1.90;;;;;;;;;;5004693;28;20398;-80
2023/08/19 08:10:19;;;;;;;3.05;2.22;;;;;;;;;;5008981;28;20109;-79
2023/08/19 08:12:45;;;;;;;2.17;1.77;;;;;;;;;;5008730;28;20525;-79
2023/08/19 08:15:12;;;;;;;3.28;1.83;;;;;;;;;;5001997;28;20038;-80
2023/08/19 08:17:38;;;;;;;2.83;2.03;;;;;;;;;;4997315;28;20025;-80
2023/08/19 08:20:05;;;;;;;2.85;2.00;;;;;;;;;;5009355;28;20033;-80
2023/08/19 08:22:32;;;;;;;1.58;1.48;;;;;;;;;;5008384;28;20443;-80
2023/08/19 08:24:58;;;;;;;2.88;2.25;;;;;;;;;;5010538;28;20447;-80
2023/08/19 08:27:25;;;;;;;2.10;1.70;;;;;;;;;;5007074;28;20163;-80
2023/08/19 08:29:51;;;;;;;3.05;2.17;;;;;;;;;;4990801;28;20030;-80
2023/08/19 08:32:17;;;;;;;2.05;1.85;;;;;;;;;;4999191;28;20073;-79
2023/08/19 08:34:43;;;;;;;2.65;1.77;;;;;;;;;;5010438;28;20117;-80
2023/08/19 08:37:09;;;;;;;3.80;2.10;;;;;;;;;;5007209;28;20510;-80
2023/08/19 08:39:35;;;;;;;3.10;1.98;;;;;;;;;;4990776;28;20031;-80
2023/08/19 08:42:08;;;;;;;2.10;1.60;;;;;;;;;;5003338;28;20041;-80
2023/08/19 08:44:37;;;;;;;2.10;1.65;;;;;;;;;;5006767;28;20108;-80
2023/08/19 08:47:03;;;;;;;2.67;1.60;;;;;;;;;;5010016;28;20110;-80
2023/08/19 08:49:29;;;;;;;3.47;1.70;;;;;;;;;;5010010;28;20113;-80
2023/08/19 08:51:56;;;;;;;2.58;1.77;;;;;;;;;;5006701;28;20026;-80
2023/08/19 08:54:22;;;;;;;2.53;1.65;;;;;;;;;;5000766;28;20041;-80
2023/08/19 08:56:48;;;;;;;3.28;1.90;;;;;;;;;;5006766;28;20072;-80
2023/08/19 08:59:16;;;;;;;3.33;1.77;;;;;;;;;;5009147;28;20072;-80
2023/08/19 09:01:44;;;;;;;1.58;1.48;;;;;;;;;;5004482;28;20122;-79
2023/08/19 09:04:10;;;;;;;3.47;2.10;;;;;;;;;;4993481;28;20027;-79
2023/08/19 09:06:38;;;;;;;3.00;2.00;;;;;;;;;;4993595;28;20137;-78
2023/08/19 09:09:05;;;;;;;3.03;1.70;;;;;;;;;;5009261;28;20038;-78
2023/08/19 09:11:35;;;;;;;2.08;1.77;;;;;;;;;;5008227;28;20037;-80
2023/08/19 09:14:19;;;;;;;3.30;2.07;;;;;;;;;;4998533;28;20387;-79
2023/08/19 09:16:45;;;;;;;2.30;1.80;;;;;;;;;;4990160;28;20578;-80
2023/08/19 09:19:12;;;;;;;2.28;2.08;;;;;;;;;;5006086;28;20057;-80
2023/08/19 09:21:39;;;;;;;3.13;1.58;;;;;;;;;;4999817;28;20025;-80
2023/08/19 09:24:05;;;;;;;2.10;1.60;;;;;;;;;;5006301;28;20041;-79
2023/08/19 09:26:31;;;;;;;2.33;1.55;;;;;;;;;;4994157;28;20030;-79
2023/08/19 09:28:57;;;;;;;2.10;1.88;;;;;;;;;;5002813;28;20038;-79
2023/08/19 09:31:24;;;;;;;2.53;1.50;;;;;;;;;;5004054;28;20037;-79
2023/08/19 09:33:53;;;;;;;3.30;2.03;;;;;;;;;;5009272;28;20567;-79
2023/08/19 09:36:24;;;;;;;2.92;1.65;;;;;;;;;;5007184;28;20072;-79
2023/08/19 09:38:56;;;;;;;1.83;1.63;;;;;;;;;;5008853;28;20046;-79
2023/08/19 09:41:27;;;;;;;2.10;1.83;;;;;;;;;;5007274;28;20038;-79
2023/08/19 09:43:53;;;;;;;1.80;1.52;;;;;;;;;;5005931;28;20033;-79
2023/08/19 09:46:19;;;;;;;1.95;1.63;;;;;;;;;;5006015;28;20045;-79
2023/08/19 09:48:55;;;;;;;2.33;1.80;;;;;;;;;;5007638;28;20030;-79
2023/08/19 09:51:31;;;;;;;2.00;1.65;;;;;;;;;;5008561;28;20494;-80
2023/08/19 09:53:57;;;;;;;1.73;1.35;;;;;;;;;;5002394;28;20073;-79
2023/08/19 09:56:26;;;;;;;2.22;1.88;;;;;;;;;;4995874;28;20052;-80
2023/08/19 09:58:54;;;;;;;3.25;1.88;;;;;;;;;;5008125;28;20037;-80
2023/08/19 10:01:25;;;;;;;2.70;1.77;;;;;;;;;;4994328;28;20205;-79
2023/08/19 10:03:51;;;;;;;1.88;1.55;;;;;;;;;;4988938;28;20045;-79
2023/08/19 10:06:22;;;;;;;2.42;1.70;;;;;;;;;;4988468;28;20390;-79
2023/08/19 10:08:50;;;;;;;2.33;1.77;;;;;;;;;;5005594;28;20037;-80
2023/08/19 10:11:16;;;;;;;2.60;1.70;;;;;;;;;;5005183;28;20018;-79
2023/08/19 10:13:45;;;;;;;1.90;1.70;;;;;;;;;;5009436;28;20100;-79
2023/08/19 10:16:16;;;;;;;2.13;1.75;;;;;;;;;;5007982;28;20105;-79
2023/08/19 10:18:44;;;;;;;4.00;1.85;;;;;;;;;;4997613;28;20049;-79
2023/08/19 10:21:14;;;;;;;2.38;1.67;;;;;;;;;;5006023;28;20100;-79
2023/08/19 10:23:41;;;;;;;2.30;1.67;;;;;;;;;;5007347;28;20030;-80
2023/08/19 10:26:11;;;;;;;2.03;1.58;;;;;;;;;;5002057;28;20033;-79
2023/08/19 10:28:37;;;;;;;4.07;2.42;;;;;;;;;;4995489;28;20041;-79
2023/08/19 10:31:10;;;;;;;2.28;1.77;;;;;;;;;;5002997;28;20014;-79
2023/08/19 10:33:39;;;;;;;2.88;1.85;;;;;;;;;;5005015;28;20548;-79
2023/08/19 10:36:06;;;;;;;2.05;1.60;;;;;;;;;;5006483;28;20482;-79
2023/08/19 10:38:48;;;;;;;2.08;1.60;;;;;;;;;;5004401;28;20037;-79
2023/08/19 10:41:19;;;;;;;2.47;1.83;;;;;;;;;;5006926;28;20049;-79
2023/08/19 10:44:04;;;;;;;1.60;1.48;;;;;;;;;;5008313;28;20036;-79
2023/08/19 10:46:47;;;;;;;2.90;1.60;;;;;;;;;;5006602;28;20084;-79
2023/08/19 10:49:14;;;;;;;2.45;1.58;;;;;;;;;;5005564;28;20058;-80
2023/08/19 10:51:47;;;;;;;2.38;1.75;;;;;;;;;;5002889;28;20026;-79
2023/08/19 10:54:13;;;;;;;4.10;1.92;;;;;;;;;;5004681;28;20036;-79
2023/08/19 10:56:44;;;;;;;2.67;1.85;;;;;;;;;;4992536;28;20038;-80
2023/08/19 10:59:10;;;;;;;;;;;;;;;;;;4990388;28;20050;-80
2023/08/19 11:01:40;;;;;;;1.88;1.65;;;;;;;;;;4997902;28;19914;-79
2023/08/19 11:04:07;;;;;;;2.67;1.92;;;;;;;;;;5005333;28;20041;-79
2023/08/19 11:06:33;;;;;;;2.33;1.90;;;;;;;;;;5007889;28;20030;-79
2023/08/19 11:09:00;;;;;;;3.30;2.10;;;;;;;;;;5005767;28;20034;-80
2023/08/19 11:11:26;;;;;;;2.42;1.75;;;;;;;;;;4995057;28;20037;-79
2023/08/19 11:13:55;;;;;;;2.00;1.65;;;;;;;;;;5007592;28;20038;-79
2023/08/19 11:16:27;;;;;;;2.40;1.77;;;;;;;;;;5007763;28;20433;-80
2023/08/19 11:18:54;;;;;;;2.10;1.80;;;;;;;;;;5006835;28;20119;-79
2023/08/19 11:21:20;;;;;;;2.10;1.90;;;;;;;;;;4998145;28;20800;-79
2023/08/19 11:23:46;;;;;;;2.30;1.90;;;;;;;;;;5007664;28;20057;-79
2023/08/19 11:26:12;;;;;;;2.13;1.90;;;;;;;;;;5002751;28;20491;-79
2023/08/19 11:28:43;;;;;;;2.95;2.10;;;;;;;;;;4996601;28;20100;-79
2023/08/19 11:31:10;;;;;;;2.78;1.85;;;;;;;;;;4988094;28;20045;-79
2023/08/19 11:33:37;;;;;;;2.55;1.90;;;;;;;;;;5002181;28;20045;-79
2023/08/19 11:36:04;;;;;;;2.72;2.10;;;;;;;;;;5001176;28;20027;-79
2023/08/19 11:38:30;;;;;;;2.35;1.90;;;;;;;;;;5008858;28;20041;-79
2023/08/19 11:40:56;;;;;;;2.35;2.00;;;;;;;;;;5003878;28;20026;-79
2023/08/19 11:43:23;;;;;;;2.15;1.95;;;;;;;;;;5005327;28;20030;-79
2023/08/19 11:45:50;;;;;;;2.50;2.20;;;;;;;;;;5011223;28;20053;-79
2023/08/19 11:48:16;;;;;;;2.05;1.85;;;;;;;;;;5010197;28;20026;-79
2023/08/19 11:50:47;;;;;;;2.53;2.00;;;;;;;;;;5003584;28;20120;-80
2023/08/19 11:53:12;;;;;;;;;;;;;;;;;;5002406;28;20030;-79
2023/08/19 11:55:38;;;;;;;2.03;1.80;;;;;;;;;;4991185;28;20341;-79
2023/08/19 11:58:04;;;;;;;2.47;1.88;;;;;;;;;;5002194;28;20026;-79
2023/08/19 12:00:31;;;;;;;1.73;1.58;;;;;;;;;;5008490;28;20052;-79
2023/08/19 12:02:57;;;;;;;2.17;1.85;;;;;;;;;;5004682;28;20395;-80
2023/08/19 12:05:24;;;;;;;2.08;1.88;;;;;;;;;;4991293;28;20434;-79
2023/08/19 12:07:50;;;;;;;1.95;1.75;;;;;;;;;;4996537;28;20048;-79
2023/08/19 12:10:16;;;;;;;1.50;1.40;;;;;;;;;;5009576;28;20054;-79
2023/08/19 12:13:00;;;;;;;2.08;1.83;;;;;;;;;;4996033;28;20057;-79
2023/08/19 12:15:26;;;;;;;2.58;1.80;;;;;;;;;;4990703;28;20030;-79
2023/08/19 12:17:52;;;;;;;2.15;1.80;;;;;;;;;;4991710;28;20084;-79
2023/08/19 12:20:18;;;;;;;2.08;1.63;;;;;;;;;;5010525;28;20029;-79
2023/08/19 12:22:44;;;;;;;1.92;1.73;;;;;;;;;;5006028;28;20026;-79
2023/08/19 12:25:10;;;;;;;1.77;1.58;;;;;;;;;;4995413;28;20033;-79
2023/08/19 12:27:36;;;;;;;1.80;1.70;;;;;;;;;;4997072;28;20407;-80
2023/08/19 12:30:02;;;;;;;1.77;1.50;;;;;;;;;;4996782;28;20030;-79
2023/08/19 12:32:28;;;;;;;1.77;1.63;;;;;;;;;;4990606;28;20497;-79
2023/08/19 12:34:55;;;;;;;2.30;1.55;;;;;;;;;;5005807;28;20025;-79
2023/08/19 12:37:21;;;;;;;1.70;1.60;;;;;;;;;;5010269;28;20386;-79
2023/08/19 12:39:47;;;;;;;1.60;1.50;;;;;;;;;;5003690;28;20014;-79
2023/08/19 12:42:13;;;;;;;2.38;1.52;;;;;;;;;;5000539;28;20037;-79
2023/08/19 12:44:39;;;;;;;1.52;1.42;;;;;;;;;;5009899;28;20076;-79
2023/08/19 12:47:05;;;;;;;1.90;1.52;;;;;;;;;;5025191;28;20032;-79
2023/08/19 12:49:31;;;;;;;1.65;1.40;;;;;;;;;;5007628;28;20033;-79
2023/08/19 12:52:00;;;;;;;1.92;1.65;;;;;;;;;;4993705;28;20164;-79
2023/08/19 12:54:26;;;;;;;2.40;1.60;;;;;;;;;;5009920;28;20044;-79
2023/08/19 12:56:52;;;;;;;4.13;1.52;;;;;;;;;;5009540;28;20470;-79
2023/08/19 12:59:18;;;;;;;2.70;2.20;;;;;;;;;;5008280;28;20599;-80
2023/08/19 13:01:44;;;;;;;1.90;1.67;;;;;;;;;;4991844;28;20517;-79
2023/08/19 13:04:10;;;;;;;2.05;1.60;;;;;;;;;;5009798;28;20045;-79
2023/08/19 13:06:36;;;;;;;5.50;2.03;;;;;;;;;;5009427;28;20030;-79
2023/08/19 13:09:02;;;;;;;1.60;1.42;;;;;;;;;;5009963;28;20056;-79
2023/08/19 13:11:28;;;;;;;1.98;1.23;;;;;;;;;;5004145;28;20056;-79
2023/08/19 13:13:55;;;;;;;1.55;1.45;;;;;;;;;;5006745;28;20052;-79
2023/08/19 13:16:21;;;;;;;1.75;1.60;;;;;;;;;;5009522;28;20024;-79
2023/08/19 13:18:47;;;;;;;1.70;1.52;;;;;;;;;;5009233;28;20026;-79
2023/08/19 13:21:13;;;;;;;2.15;1.60;;;;;;;;;;5003932;28;20026;-79
2023/08/19 13:23:39;;;;;;;1.48;1.38;;;;;;;;;;5000828;28;20207;-79
2023/08/19 13:26:06;;;;;;;1.90;1.50;;;;;;;;;;5009272;28;20831;-80
2023/08/19 13:28:32;;;;;;;1.65;1.55;;;;;;;;;;5008929;28;20415;-79
2023/08/19 13:30:58;;;;;;;2.92;2.03;;;;;;;;;;5007859;28;20026;-80
2023/08/19 13:33:24;;;;;;;1.67;1.48;;;;;;;;;;5006418;28;20371;-80
2023/08/19 13:35:50;;;;;;;2.00;1.60;;;;;;;;;;5009287;28;20030;-79
2023/08/19 13:38:16;;;;;;;1.45;1.35;;;;;;;;;;5008743;28;20033;-80
2023/08/19 13:40:41;;;;;;;2.78;1.60;;;;;;;;;;5008921;28;20087;-80
2023/08/19 13:43:07;;;;;;;2.05;1.70;;;;;;;;;;5005115;28;20034;-80
2023/08/19 13:45:33;;;;;;;2.05;1.67;;;;;;;;;;4997895;28;20030;-80
2023/08/19 13:47:59;;;;;;;2.05;1.63;;;;;;;;;;4999860;28;20244;-80
2023/08/19 13:50:26;;;;;;;2.33;1.90;;;;;;;;;;5008789;28;20053;-80
2023/08/19 13:52:51;;;;;;;1.50;1.40;;;;;;;;;;5004435;28;20682;-80
2023/08/19 13:55:17;;;;;;;2.17;1.40;;;;;;;;;;4993374;28;20030;-80
2023/08/19 13:57:46;;;;;;;1.88;1.58;;;;;;;;;;4989124;28;20070;-79
2023/08/19 14:00:15;;;;;;;3.13;1.98;;;;;;;;;;4988490;28;20129;-78
2023/08/19 14:02:42;;;;;;;2.13;1.80;;;;;;;;;;4999648;28;20029;-79
2023/08/19 14:05:09;;;;;;;2.28;1.90;;;;;;;;;;5007759;28;20033;-79
2023/08/19 14:07:35;;;;;;;2.40;1.70;;;;;;;;;;4996648;28;20444;-79
2023/08/19 14:10:01;;;;;;;3.25;1.92;;;;;;;;;;4989207;28;20054;-80
2023/08/19 14:12:27;;;;;;;1.80;1.50;;;;;;;;;;4995790;28;20022;-80
2023/08/19 14:14:53;;;;;;;2.00;1.58;;;;;;;;;;5008083;28;20623;-80
2023/08/19 14:17:19;;;;;;;2.00;1.77;;;;;;;;;;5002518;28;20076;-79
2023/08/19 14:19:45;;;;;;;2.47;1.70;;;;;;;;;;5004109;28;20029;-81
2023/08/19 14:22:10;;;;;;;3.78;1.80;;;;;;;;;;5002390;28;20045;-80
2023/08/19 14:24:36;;;;;;;2.45;1.55;;;;;;;;;;5007826;28;20033;-80
2023/08/19 14:27:03;;;;;;;2.50;1.70;;;;;;;;;;5008586;28;20409;-80
2023/08/19 14:29:29;;;;;;;1.65;1.40;;;;;;;;;;5000127;28;20251;-80
2023/08/19 14:31:55;;;;;;;1.70;1.60;;;;;;;;;;5007511;28;20025;-79
2023/08/19 14:34:21;;;;;;;2.72;1.65;;;;;;;;;;5007468;28;20022;-80
2023/08/19 14:36:47;;;;;;;1.83;1.30;;;;;;;;;;5008426;28;20018;-80
2023/08/19 14:39:13;;;;;;;1.98;1.55;;;;;;;;;;5003866;28;20025;-80
2023/08/19 14:41:39;;;;;;;2.00;1.60;;;;;;;;;;4996486;28;20498;-80